sensor_id;sensor_type;location;lat;lon;timestamp;pressure;altitude;pressure_sealevel;temperature;humidity
73633;BME280;61927;50.080;14.418;2022-12-26T00:01:18;99368.69;;;6.40;78.05
73633;BME280;61927;50.080;14.418;2022-12-26T00:03:44;99364.00;;;6.46;77.65
73633;BME280;61927;50.080;14.418;2022-12-26T00:06:18;99369.75;;;6.55;77.47
73633;BME280;61927;50.080;14.418;2022-12-26T00:08:45;99383.44;;;6.63;77.25
73633;BME280;61927;50.080;14.418;2022-12-26T00:11:10;99398.13;;;6.68;76.90
73633;BME280;61927;50.080;14.418;2022-12-26T00:13:37;99396.34;;;6.69;76.79
73633;BME280;61927;50.080;14.418;2022-12-26T00:16:13;99396.13;;;6.73;76.38
73633;BME280;61927;50.080;14.418;2022-12-26T00:18:40;99393.41;;;6.75;76.47
73633;BME280;61927;50.080;14.418;2022-12-26T00:21:07;99384.78;;;6.71;76.17
73633;BME280;61927;50.080;14.418;2022-12-26T00:23:34;99391.06;;;6.69;77.29
73633;BME280;61927;50.080;14.418;2022-12-26T00:26:20;99395.41;;;6.70;76.95
73633;BME280;61927;50.080;14.418;2022-12-26T00:28:46;99394.13;;;6.78;76.58
73633;BME280;61927;50.080;14.418;2022-12-26T00:31:18;99392.25;;;6.80;76.89
73633;BME280;61927;50.080;14.418;2022-12-26T00:33:45;99393.75;;;6.86;76.42
73633;BME280;61927;50.080;14.418;2022-12-26T00:36:14;99412.38;;;6.83;76.66
73633;BME280;61927;50.080;14.418;2022-12-26T00:38:42;99421.63;;;6.73;76.71
73633;BME280;61927;50.080;14.418;2022-12-26T00:41:09;99418.78;;;6.77;76.35
73633;BME280;61927;50.080;14.418;2022-12-26T00:43:35;99416.00;;;6.62;76.21
73633;BME280;61927;50.080;14.418;2022-12-26T00:46:01;99399.69;;;6.54;76.73
73633;BME280;61927;50.080;14.418;2022-12-26T00:48:27;99405.75;;;6.56;76.72
73633;BME280;61927;50.080;14.418;2022-12-26T00:50:53;99392.06;;;6.66;76.64
73633;BME280;61927;50.080;14.418;2022-12-26T00:53:19;99402.31;;;6.72;76.10
73633;BME280;61927;50.080;14.418;2022-12-26T00:55:45;99392.84;;;6.68;76.41
73633;BME280;61927;50.080;14.418;2022-12-26T00:58:11;99394.47;;;6.71;76.61
73633;BME280;61927;50.080;14.418;2022-12-26T01:00:37;99400.47;;;6.74;76.25
73633;BME280;61927;50.080;14.418;2022-12-26T01:03:05;99404.25;;;6.69;76.88
73633;BME280;61927;50.080;14.418;2022-12-26T01:05:32;99387.44;;;6.71;76.59
73633;BME280;61927;50.080;14.418;2022-12-26T01:07:57;99389.22;;;6.71;76.77
73633;BME280;61927;50.080;14.418;2022-12-26T01:10:23;99396.13;;;6.73;76.80
73633;BME280;61927;50.080;14.418;2022-12-26T01:12:49;99390.41;;;6.83;76.53
73633;BME280;61927;50.080;14.418;2022-12-26T01:15:14;99390.13;;;6.89;75.89
73633;BME280;61927;50.080;14.418;2022-12-26T01:17:40;99398.53;;;6.97;76.08
73633;BME280;61927;50.080;14.418;2022-12-26T01:20:05;99392.47;;;6.95;75.61
73633;BME280;61927;50.080;14.418;2022-12-26T01:22:31;99382.91;;;6.92;75.71
73633;BME280;61927;50.080;14.418;2022-12-26T01:24:57;99380.34;;;6.91;75.58
73633;BME280;61927;50.080;14.418;2022-12-26T01:27:24;99385.78;;;6.88;75.83
73633;BME280;61927;50.080;14.418;2022-12-26T01:29:50;99403.44;;;6.86;76.15
73633;BME280;61927;50.080;14.418;2022-12-26T01:32:17;99389.47;;;6.84;76.11
73633;BME280;61927;50.080;14.418;2022-12-26T01:34:43;99378.84;;;6.85;75.66
73633;BME280;61927;50.080;14.418;2022-12-26T01:37:13;99384.00;;;6.88;75.54
73633;BME280;61927;50.080;14.418;2022-12-26T01:39:38;99389.19;;;6.90;75.73
73633;BME280;61927;50.080;14.418;2022-12-26T01:42:12;99382.06;;;6.92;75.36
73633;BME280;61927;50.080;14.418;2022-12-26T01:47:16;99402.09;;;6.96;75.50
73633;BME280;61927;50.080;14.418;2022-12-26T01:49:46;99400.31;;;6.96;75.26
73633;BME280;61927;50.080;14.418;2022-12-26T01:52:40;99404.66;;;6.97;75.35
73633;BME280;61927;50.080;14.418;2022-12-26T01:55:04;99397.59;;;6.98;75.70
73633;BME280;61927;50.080;14.418;2022-12-26T01:57:37;99393.94;;;7.00;75.61
73633;BME280;61927;50.080;14.418;2022-12-26T02:00:05;99382.47;;;7.01;75.53
73633;BME280;61927;50.080;14.418;2022-12-26T02:02:31;99380.47;;;7.06;75.55
73633;BME280;61927;50.080;14.418;2022-12-26T02:05:17;99377.59;;;7.11;75.68
73633;BME280;61927;50.080;14.418;2022-12-26T02:07:59;99377.53;;;7.12;75.56
73633;BME280;61927;50.080;14.418;2022-12-26T02:10:27;99364.09;;;7.17;75.70
73633;BME280;61927;50.080;14.418;2022-12-26T02:12:54;99363.72;;;7.25;75.77
73633;BME280;61927;50.080;14.418;2022-12-26T02:15:20;99352.16;;;7.27;75.60
73633;BME280;61927;50.080;14.418;2022-12-26T02:17:45;99346.97;;;7.26;75.53
73633;BME280;61927;50.080;14.418;2022-12-26T02:20:22;99361.16;;;7.23;75.71
73633;BME280;61927;50.080;14.418;2022-12-26T02:34:29;99354.56;;;7.49;76.22
73633;BME280;61927;50.080;14.418;2022-12-26T02:37:19;99356.97;;;7.54;76.31
73633;BME280;61927;50.080;14.418;2022-12-26T02:45:44;99330.25;;;7.77;75.77
73633;BME280;61927;50.080;14.418;2022-12-26T02:51:22;99331.41;;;7.71;76.08
73633;BME280;61927;50.080;14.418;2022-12-26T02:57:03;99337.47;;;7.73;75.93
73633;BME280;61927;50.080;14.418;2022-12-26T02:59:54;99327.84;;;7.72;75.97
73633;BME280;61927;50.080;14.418;2022-12-26T03:02:45;99328.69;;;7.73;76.05
73633;BME280;61927;50.080;14.418;2022-12-26T03:05:50;99325.97;;;7.74;76.22
73633;BME280;61927;50.080;14.418;2022-12-26T03:08:37;99327.69;;;7.75;76.18
73633;BME280;61927;50.080;14.418;2022-12-26T03:11:26;99331.94;;;7.78;75.99
73633;BME280;61927;50.080;14.418;2022-12-26T03:14:22;99322.25;;;7.78;76.32
73633;BME280;61927;50.080;14.418;2022-12-26T03:16:50;99325.91;;;7.76;76.33
73633;BME280;61927;50.080;14.418;2022-12-26T03:19:37;99328.63;;;7.74;76.45
73633;BME280;61927;50.080;14.418;2022-12-26T03:24:59;99318.91;;;7.75;76.79
73633;BME280;61927;50.080;14.418;2022-12-26T03:27:44;99314.47;;;7.75;76.42
73633;BME280;61927;50.080;14.418;2022-12-26T03:30:09;99311.84;;;7.75;76.56
73633;BME280;61927;50.080;14.418;2022-12-26T03:32:54;99328.53;;;7.76;76.84
73633;BME280;61927;50.080;14.418;2022-12-26T03:35:20;99324.97;;;7.77;76.59
73633;BME280;61927;50.080;14.418;2022-12-26T03:37:54;99332.81;;;7.78;76.47
73633;BME280;61927;50.080;14.418;2022-12-26T03:40:32;99333.59;;;7.81;76.88
73633;BME280;61927;50.080;14.418;2022-12-26T03:43:50;99323.78;;;7.83;76.48
73633;BME280;61927;50.080;14.418;2022-12-26T03:47:08;99319.19;;;7.86;76.23
73633;BME280;61927;50.080;14.418;2022-12-26T03:50:02;99314.75;;;7.87;76.68
73633;BME280;61927;50.080;14.418;2022-12-26T03:56:02;99320.91;;;7.87;76.56
73633;BME280;61927;50.080;14.418;2022-12-26T03:59:01;99327.97;;;7.87;76.09
73633;BME280;61927;50.080;14.418;2022-12-26T04:01:49;99334.88;;;7.89;76.57
73633;BME280;61927;50.080;14.418;2022-12-26T04:04:38;99325.50;;;7.84;76.56
73633;BME280;61927;50.080;14.418;2022-12-26T04:07:27;99325.50;;;7.84;76.43
73633;BME280;61927;50.080;14.418;2022-12-26T04:10:18;99316.78;;;7.82;76.67
73633;BME280;61927;50.080;14.418;2022-12-26T04:13:05;99306.41;;;7.78;76.72
73633;BME280;61927;50.080;14.418;2022-12-26T04:16:02;99298.63;;;7.75;76.88
73633;BME280;61927;50.080;14.418;2022-12-26T04:18:57;99297.00;;;7.73;77.18
73633;BME280;61927;50.080;14.418;2022-12-26T04:21:50;99301.34;;;7.74;76.90
73633;BME280;61927;50.080;14.418;2022-12-26T04:24:43;99305.38;;;7.81;76.62
73633;BME280;61927;50.080;14.418;2022-12-26T04:27:31;99299.94;;;7.84;76.65
73633;BME280;61927;50.080;14.418;2022-12-26T04:30:15;99303.25;;;7.88;76.68
73633;BME280;61927;50.080;14.418;2022-12-26T04:33:12;99310.19;;;7.90;76.44
73633;BME280;61927;50.080;14.418;2022-12-26T04:36:02;99324.16;;;7.92;76.62
73633;BME280;61927;50.080;14.418;2022-12-26T04:38:56;99330.75;;;8.01;76.43
73633;BME280;61927;50.080;14.418;2022-12-26T04:41:42;99338.00;;;8.13;75.92
73633;BME280;61927;50.080;14.418;2022-12-26T04:44:28;99334.09;;;8.20;75.58
73633;BME280;61927;50.080;14.418;2022-12-26T04:46:55;99311.69;;;8.27;75.34
73633;BME280;61927;50.080;14.418;2022-12-26T04:49:21;99316.13;;;8.27;75.48
73633;BME280;61927;50.080;14.418;2022-12-26T04:52:11;99330.19;;;8.27;75.59
73633;BME280;61927;50.080;14.418;2022-12-26T04:54:37;99330.03;;;8.30;75.55
73633;BME280;61927;50.080;14.418;2022-12-26T04:57:03;99341.31;;;8.34;75.46
73633;BME280;61927;50.080;14.418;2022-12-26T04:59:30;99343.88;;;8.35;75.42
73633;BME280;61927;50.080;14.418;2022-12-26T05:01:55;99346.34;;;8.38;75.26
73633;BME280;61927;50.080;14.418;2022-12-26T05:04:40;99341.06;;;8.38;75.03
73633;BME280;61927;50.080;14.418;2022-12-26T05:07:27;99325.88;;;8.42;74.96
73633;BME280;61927;50.080;14.418;2022-12-26T05:10:18;99329.31;;;8.44;74.66
73633;BME280;61927;50.080;14.418;2022-12-26T05:12:44;99347.81;;;8.44;75.08
73633;BME280;61927;50.080;14.418;2022-12-26T05:15:10;99342.59;;;8.43;75.06
73633;BME280;61927;50.080;14.418;2022-12-26T05:17:36;99352.94;;;8.47;75.27
73633;BME280;61927;50.080;14.418;2022-12-26T05:20:20;99356.88;;;8.56;74.87
73633;BME280;61927;50.080;14.418;2022-12-26T05:23:12;99359.09;;;8.63;74.73
73633;BME280;61927;50.080;14.418;2022-12-26T05:26:15;99342.38;;;8.63;74.75
73633;BME280;61927;50.080;14.418;2022-12-26T05:29:00;99341.41;;;8.64;74.39
73633;BME280;61927;50.080;14.418;2022-12-26T05:31:28;99343.22;;;8.63;74.74
73633;BME280;61927;50.080;14.418;2022-12-26T05:33:53;99350.38;;;8.61;74.79
73633;BME280;61927;50.080;14.418;2022-12-26T05:36:50;99351.50;;;8.57;74.68
73633;BME280;61927;50.080;14.418;2022-12-26T05:39:16;99350.38;;;8.61;74.44
73633;BME280;61927;50.080;14.418;2022-12-26T05:41:42;99346.78;;;8.62;74.46
73633;BME280;61927;50.080;14.418;2022-12-26T05:44:08;99352.78;;;8.66;74.71
73633;BME280;61927;50.080;14.418;2022-12-26T05:46:35;99339.28;;;8.70;74.30
73633;BME280;61927;50.080;14.418;2022-12-26T05:49:02;99336.56;;;8.72;74.44
73633;BME280;61927;50.080;14.418;2022-12-26T05:51:28;99336.47;;;8.73;73.95
73633;BME280;61927;50.080;14.418;2022-12-26T05:53:54;99346.19;;;8.73;74.04
73633;BME280;61927;50.080;14.418;2022-12-26T05:56:20;99340.06;;;8.72;74.12
73633;BME280;61927;50.080;14.418;2022-12-26T05:58:46;99339.13;;;8.73;74.03
73633;BME280;61927;50.080;14.418;2022-12-26T06:01:14;99345.09;;;8.77;73.90
73633;BME280;61927;50.080;14.418;2022-12-26T06:03:41;99339.53;;;8.82;74.00
73633;BME280;61927;50.080;14.418;2022-12-26T06:06:09;99342.88;;;8.85;73.68
73633;BME280;61927;50.080;14.418;2022-12-26T06:08:35;99342.00;;;8.85;73.67
73633;BME280;61927;50.080;14.418;2022-12-26T06:11:03;99346.19;;;8.89;73.68
73633;BME280;61927;50.080;14.418;2022-12-26T06:13:29;99355.56;;;8.94;73.25
73633;BME280;61927;50.080;14.418;2022-12-26T06:15:55;99342.09;;;8.99;73.21
73633;BME280;61927;50.080;14.418;2022-12-26T06:18:20;99329.69;;;8.99;72.74
73633;BME280;61927;50.080;14.418;2022-12-26T06:20:46;99334.06;;;9.00;73.12
73633;BME280;61927;50.080;14.418;2022-12-26T06:23:11;99332.53;;;8.96;73.46
73633;BME280;61927;50.080;14.418;2022-12-26T06:25:37;99331.00;;;8.92;73.51
73633;BME280;61927;50.080;14.418;2022-12-26T06:28:03;99320.50;;;8.91;73.58
73633;BME280;61927;50.080;14.418;2022-12-26T06:30:28;99320.41;;;8.92;73.24
73633;BME280;61927;50.080;14.418;2022-12-26T06:32:54;99318.72;;;8.91;73.28
73633;BME280;61927;50.080;14.418;2022-12-26T06:35:20;99314.00;;;8.96;73.45
73633;BME280;61927;50.080;14.418;2022-12-26T06:37:45;99316.66;;;8.96;73.09
73633;BME280;61927;50.080;14.418;2022-12-26T06:40:11;99302.66;;;8.94;73.18
73633;BME280;61927;50.080;14.418;2022-12-26T06:42:36;99305.72;;;8.87;73.36
73633;BME280;61927;50.080;14.418;2022-12-26T06:45:02;99315.63;;;8.83;73.66
73633;BME280;61927;50.080;14.418;2022-12-26T06:47:28;99323.66;;;8.82;73.64
73633;BME280;61927;50.080;14.418;2022-12-26T06:49:54;99331.53;;;8.83;73.90
73633;BME280;61927;50.080;14.418;2022-12-26T06:52:20;99330.75;;;8.81;73.63
73633;BME280;61927;50.080;14.418;2022-12-26T06:54:45;99331.53;;;8.83;73.47
73633;BME280;61927;50.080;14.418;2022-12-26T06:57:11;99329.72;;;8.84;73.52
73633;BME280;61927;50.080;14.418;2022-12-26T06:59:36;99332.03;;;8.90;73.46
73633;BME280;61927;50.080;14.418;2022-12-26T07:02:02;99335.44;;;8.92;73.14
73633;BME280;61927;50.080;14.418;2022-12-26T07:04:28;99329.28;;;8.91;73.08
73633;BME280;61927;50.080;14.418;2022-12-26T07:06:53;99323.22;;;8.89;73.10
73633;BME280;61927;50.080;14.418;2022-12-26T07:09:19;99324.00;;;8.91;73.04
73633;BME280;61927;50.080;14.418;2022-12-26T07:11:46;99317.50;;;8.97;73.35
73633;BME280;61927;50.080;14.418;2022-12-26T07:14:13;99311.94;;;9.01;72.83
73633;BME280;61927;50.080;14.418;2022-12-26T07:16:40;99313.56;;;9.04;72.58
73633;BME280;61927;50.080;14.418;2022-12-26T07:19:06;99305.94;;;9.14;72.75
73633;BME280;61927;50.080;14.418;2022-12-26T07:21:32;99307.56;;;9.16;72.47
73633;BME280;61927;50.080;14.418;2022-12-26T07:23:58;99307.28;;;9.21;72.20
73633;BME280;61927;50.080;14.418;2022-12-26T07:26:24;99301.81;;;9.24;72.21
73633;BME280;61927;50.080;14.418;2022-12-26T07:28:54;99303.25;;;9.29;72.28
73633;BME280;61927;50.080;14.418;2022-12-26T07:31:20;99303.34;;;9.28;71.69
73633;BME280;61927;50.080;14.418;2022-12-26T07:33:48;99315.63;;;9.29;71.95
73633;BME280;61927;50.080;14.418;2022-12-26T07:36:13;99314.78;;;9.28;71.47
73633;BME280;61927;50.080;14.418;2022-12-26T07:38:39;99315.72;;;9.27;71.98
73633;BME280;61927;50.080;14.418;2022-12-26T07:41:05;99314.97;;;9.25;71.80
73633;BME280;61927;50.080;14.418;2022-12-26T07:43:50;99313.94;;;9.28;72.11
73633;BME280;61927;50.080;14.418;2022-12-26T07:46:15;99319.81;;;9.33;71.44
73633;BME280;61927;50.080;14.418;2022-12-26T07:48:41;99325.78;;;9.36;71.68
73633;BME280;61927;50.080;14.418;2022-12-26T07:51:06;99325.69;;;9.38;71.55
73633;BME280;61927;50.080;14.418;2022-12-26T07:53:32;99329.19;;;9.38;71.88
73633;BME280;61927;50.080;14.418;2022-12-26T07:55:58;99327.22;;;9.42;71.12
73633;BME280;61927;50.080;14.418;2022-12-26T07:58:24;99333.25;;;9.44;71.76
73633;BME280;61927;50.080;14.418;2022-12-26T08:00:50;99333.19;;;9.46;70.98
73633;BME280;61927;50.080;14.418;2022-12-26T08:03:15;99336.41;;;9.51;71.29
73633;BME280;61927;50.080;14.418;2022-12-26T08:05:45;99336.31;;;9.52;71.00
73633;BME280;61927;50.080;14.418;2022-12-26T08:08:12;99335.19;;;9.56;71.11
73633;BME280;61927;50.080;14.418;2022-12-26T08:10:38;99335.38;;;9.53;70.90
73633;BME280;61927;50.080;14.418;2022-12-26T08:13:03;99324.00;;;9.51;71.30
73633;BME280;61927;50.080;14.418;2022-12-26T08:15:29;99333.56;;;9.54;71.09
73633;BME280;61927;50.080;14.418;2022-12-26T08:17:54;99335.09;;;9.58;70.91
73633;BME280;61927;50.080;14.418;2022-12-26T08:20:20;99336.03;;;9.57;70.87
73633;BME280;61927;50.080;14.418;2022-12-26T08:22:45;99334.06;;;9.60;70.36
73633;BME280;61927;50.080;14.418;2022-12-26T08:25:11;99350.91;;;9.59;70.68
73633;BME280;61927;50.080;14.418;2022-12-26T08:27:37;99347.13;;;9.63;70.40
73633;BME280;61927;50.080;14.418;2022-12-26T08:30:03;99355.75;;;9.67;70.31
73633;BME280;61927;50.080;14.418;2022-12-26T08:32:29;99358.31;;;9.68;70.60
73633;BME280;61927;50.080;14.418;2022-12-26T08:34:55;99360.94;;;9.68;70.43
73633;BME280;61927;50.080;14.418;2022-12-26T08:37:21;99365.31;;;9.69;70.08
73633;BME280;61927;50.080;14.418;2022-12-26T08:39:49;99366.06;;;9.71;70.36
73633;BME280;61927;50.080;14.418;2022-12-26T08:42:17;99364.09;;;9.75;70.30
73633;BME280;61927;50.080;14.418;2022-12-26T08:44:43;99354.25;;;9.77;70.29
73633;BME280;61927;50.080;14.418;2022-12-26T08:47:08;99356.63;;;9.82;69.68
73633;BME280;61927;50.080;14.418;2022-12-26T08:49:34;99358.31;;;9.83;69.60
73633;BME280;61927;50.080;14.418;2022-12-26T08:52:00;99361.84;;;9.83;69.85
73633;BME280;61927;50.080;14.418;2022-12-26T08:54:25;99359.19;;;9.83;69.61
73633;BME280;61927;50.080;14.418;2022-12-26T08:56:51;99352.19;;;9.82;69.41
73633;BME280;61927;50.080;14.418;2022-12-26T08:59:17;99356.44;;;9.85;69.98
73633;BME280;61927;50.080;14.418;2022-12-26T09:01:43;99376.69;;;9.86;69.68
73633;BME280;61927;50.080;14.418;2022-12-26T09:04:08;99378.41;;;9.87;69.95
73633;BME280;61927;50.080;14.418;2022-12-26T09:06:36;99370.63;;;9.84;69.88
73633;BME280;61927;50.080;14.418;2022-12-26T09:09:02;99381.06;;;9.87;69.86
73633;BME280;61927;50.080;14.418;2022-12-26T09:11:29;99377.84;;;9.96;69.60
73633;BME280;61927;50.080;14.418;2022-12-26T09:13:56;99374.72;;;10.03;69.62
73633;BME280;61927;50.080;14.418;2022-12-26T09:16:25;99380.69;;;10.07;69.12
73633;BME280;61927;50.080;14.418;2022-12-26T09:18:53;99373.50;;;10.09;68.98
73633;BME280;61927;50.080;14.418;2022-12-26T09:21:19;99378.91;;;10.08;69.30
73633;BME280;61927;50.080;14.418;2022-12-26T09:23:45;99373.41;;;10.11;69.41
73633;BME280;61927;50.080;14.418;2022-12-26T09:26:15;99379.47;;;10.13;69.24
73633;BME280;61927;50.080;14.418;2022-12-26T09:28:41;99381.09;;;10.15;68.97
73633;BME280;61927;50.080;14.418;2022-12-26T09:31:11;99383.31;;;10.23;68.75
73633;BME280;61927;50.080;14.418;2022-12-26T09:33:37;99373.34;;;10.26;69.16
73633;BME280;61927;50.080;14.418;2022-12-26T09:36:10;99372.22;;;10.30;68.92
73633;BME280;61927;50.080;14.418;2022-12-26T09:38:36;99375.44;;;10.35;68.81
73633;BME280;61927;50.080;14.418;2022-12-26T09:46:33;99379.22;;;10.46;68.18
73633;BME280;61927;50.080;14.418;2022-12-26T09:49:05;99372.59;;;10.53;68.08
73633;BME280;61927;50.080;14.418;2022-12-26T09:51:35;99376.09;;;10.53;68.08
73633;BME280;61927;50.080;14.418;2022-12-26T09:54:04;99382.81;;;10.59;67.90
73633;BME280;61927;50.080;14.418;2022-12-26T09:56:35;99379.97;;;10.62;67.79
73633;BME280;61927;50.080;14.418;2022-12-26T09:59:10;99377.13;;;10.65;67.96
73633;BME280;61927;50.080;14.418;2022-12-26T10:01:38;99367.06;;;10.70;67.42
73633;BME280;61927;50.080;14.418;2022-12-26T10:04:15;99361.38;;;10.76;67.25
73633;BME280;61927;50.080;14.418;2022-12-26T10:06:48;99355.66;;;10.82;67.26
73633;BME280;61927;50.080;14.418;2022-12-26T10:19:39;99337.56;;;10.75;67.78
73633;BME280;61927;50.080;14.418;2022-12-26T10:22:30;99333.13;;;10.75;68.49
73633;BME280;61927;50.080;14.418;2022-12-26T10:25:00;99336.63;;;10.76;68.44
73633;BME280;61927;50.080;14.418;2022-12-26T10:27:30;99321.06;;;10.84;67.80
73633;BME280;61927;50.080;14.418;2022-12-26T10:30:05;99337.34;;;10.92;67.60
73633;BME280;61927;50.080;14.418;2022-12-26T10:32:41;99340.66;;;10.95;67.48
73633;BME280;61927;50.080;14.418;2022-12-26T10:35:22;99327.81;;;11.02;67.26
73633;BME280;61927;50.080;14.418;2022-12-26T10:37:54;99332.63;;;11.10;67.18
73633;BME280;61927;50.080;14.418;2022-12-26T10:40:31;99325.31;;;11.13;67.44
73633;BME280;61927;50.080;14.418;2022-12-26T10:43:29;99331.91;;;11.20;66.90
73633;BME280;61927;50.080;14.418;2022-12-26T10:46:09;99336.28;;;11.21;67.32
73633;BME280;61927;50.080;14.418;2022-12-26T10:48:39;99337.78;;;11.25;67.21
73633;BME280;61927;50.080;14.418;2022-12-26T10:51:04;99337.56;;;11.28;67.13
73633;BME280;61927;50.080;14.418;2022-12-26T10:53:30;99332.81;;;11.33;66.99
73633;BME280;61927;50.080;14.418;2022-12-26T10:55:58;99337.16;;;11.35;67.42
73633;BME280;61927;50.080;14.418;2022-12-26T10:58:28;99330.69;;;11.39;67.61
73633;BME280;61927;50.080;14.418;2022-12-26T11:00:55;99334.84;;;11.43;67.15
73633;BME280;61927;50.080;14.418;2022-12-26T11:03:21;99326.38;;;11.50;67.24
73633;BME280;61927;50.080;14.418;2022-12-26T11:05:50;99330.09;;;11.60;67.45
73633;BME280;61927;50.080;14.418;2022-12-26T11:08:25;99314.28;;;11.72;66.82
73633;BME280;61927;50.080;14.418;2022-12-26T11:11:03;99317.72;;;11.86;66.66
73633;BME280;61927;50.080;14.418;2022-12-26T11:13:35;99318.56;;;12.00;66.55
73633;BME280;61927;50.080;14.418;2022-12-26T11:16:01;99310.47;;;12.14;66.51
73633;BME280;61927;50.080;14.418;2022-12-26T11:18:38;99307.69;;;12.28;66.14
73633;BME280;61927;50.080;14.418;2022-12-26T11:21:30;99312.13;;;12.40;65.76
73633;BME280;61927;50.080;14.418;2022-12-26T11:24:15;99311.59;;;12.48;65.52
73633;BME280;61927;50.080;14.418;2022-12-26T11:26:41;99305.41;;;12.47;65.67
73633;BME280;61927;50.080;14.418;2022-12-26T11:31:42;99300.41;;;12.43;65.83
73633;BME280;61927;50.080;14.418;2022-12-26T11:34:15;99313.94;;;12.40;66.00
73633;BME280;61927;50.080;14.418;2022-12-26T11:36:47;99314.91;;;12.39;66.33
73633;BME280;61927;50.080;14.418;2022-12-26T11:39:34;99305.72;;;12.43;65.93
73633;BME280;61927;50.080;14.418;2022-12-26T11:42:12;99304.03;;;12.42;66.33
73633;BME280;61927;50.080;14.418;2022-12-26T11:44:43;99305.22;;;12.38;66.14
73633;BME280;61927;50.080;14.418;2022-12-26T11:47:12;99307.13;;;12.36;66.34
73633;BME280;61927;50.080;14.418;2022-12-26T11:49:39;99302.16;;;12.31;66.75
73633;BME280;61927;50.080;14.418;2022-12-26T11:52:41;99299.81;;;12.26;67.01
73633;BME280;61927;50.080;14.418;2022-12-26T11:57:58;99307.47;;;12.31;66.84
73633;BME280;61927;50.080;14.418;2022-12-26T12:00:27;99305.53;;;12.33;66.71
73633;BME280;61927;50.080;14.418;2022-12-26T12:02:53;99302.25;;;12.29;66.92
73633;BME280;61927;50.080;14.418;2022-12-26T12:08:54;99309.16;;;12.32;66.70
73633;BME280;61927;50.080;14.418;2022-12-26T12:14:13;99307.47;;;12.31;66.66
73633;BME280;61927;50.080;14.418;2022-12-26T12:30:20;99325.63;;;12.50;66.45
73633;BME280;61927;50.080;14.418;2022-12-26T12:33:08;99321.81;;;12.41;66.36
73633;BME280;61927;50.080;14.418;2022-12-26T12:43:41;99295.97;;;12.31;67.72
73633;BME280;61927;50.080;14.418;2022-12-26T12:46:31;99300.34;;;12.32;68.00
73633;BME280;61927;50.080;14.418;2022-12-26T12:52:05;99287.06;;;12.19;68.70
73633;BME280;61927;50.080;14.418;2022-12-26T12:57:20;99278.13;;;12.07;70.21
73633;BME280;61927;50.080;14.418;2022-12-26T13:02:19;99292.06;;;11.98;70.61
73633;BME280;61927;50.080;14.418;2022-12-26T13:04:51;99316.00;;;11.98;70.74
73633;BME280;61927;50.080;14.418;2022-12-26T13:07:30;99327.50;;;11.99;70.23
73633;BME280;61927;50.080;14.418;2022-12-26T13:10:01;99328.44;;;11.98;70.31
73633;BME280;61927;50.080;14.418;2022-12-26T13:12:36;99317.06;;;11.95;71.04
73633;BME280;61927;50.080;14.418;2022-12-26T13:18:04;99293.88;;;11.98;70.66
73633;BME280;61927;50.080;14.418;2022-12-26T13:20:47;99296.00;;;11.92;70.67
73633;BME280;61927;50.080;14.418;2022-12-26T13:26:14;99303.56;;;11.86;70.47
73633;BME280;61927;50.080;14.418;2022-12-26T13:28:51;99308.88;;;11.86;70.36
73633;BME280;61927;50.080;14.418;2022-12-26T13:31:19;99296.97;;;11.79;70.72
73633;BME280;61927;50.080;14.418;2022-12-26T13:33:45;99268.75;;;11.76;70.67
73633;BME280;61927;50.080;14.418;2022-12-26T13:41:26;99210.41;;;11.62;71.19
73633;BME280;61927;50.080;14.418;2022-12-26T13:55:17;99342.41;;;11.49;71.34
73633;BME280;61927;50.080;14.418;2022-12-26T14:02:49;99329.97;;;11.49;70.48
73633;BME280;61927;50.080;14.418;2022-12-26T14:05:32;99319.13;;;11.52;70.66
73633;BME280;61927;50.080;14.418;2022-12-26T14:18:52;99334.63;;;11.46;70.32
73633;BME280;61927;50.080;14.418;2022-12-26T14:22:26;99329.31;;;11.46;70.40
73633;BME280;61927;50.080;14.418;2022-12-26T14:27:37;99321.66;;;11.41;70.65
73633;BME280;61927;50.080;14.418;2022-12-26T14:30:15;99328.25;;;11.36;70.78
73633;BME280;61927;50.080;14.418;2022-12-26T14:32:54;99346.28;;;11.30;71.13
73633;BME280;61927;50.080;14.418;2022-12-26T14:42:09;99343.50;;;11.19;71.48
73633;BME280;61927;50.080;14.418;2022-12-26T14:44:58;99344.75;;;11.14;71.51
73633;BME280;61927;50.080;14.418;2022-12-26T14:47:44;99349.31;;;11.12;71.79
73633;BME280;61927;50.080;14.418;2022-12-26T14:50:39;99361.84;;;11.10;71.95
73633;BME280;61927;50.080;14.418;2022-12-26T14:55:48;99375.88;;;11.12;72.01
73633;BME280;61927;50.080;14.418;2022-12-26T15:00:46;99363.03;;;11.18;71.45
73633;BME280;61927;50.080;14.418;2022-12-26T15:03:38;99369.00;;;11.22;71.53
73633;BME280;61927;50.080;14.418;2022-12-26T15:14:09;99384.13;;;11.34;71.24
73633;BME280;61927;50.080;14.418;2022-12-26T15:22:33;99371.81;;;11.33;71.08
73633;BME280;61927;50.080;14.418;2022-12-26T15:33:11;99374.50;;;11.19;71.49
73633;BME280;61927;50.080;14.418;2022-12-26T15:41:34;99377.97;;;11.07;71.66
73633;BME280;61927;50.080;14.418;2022-12-26T15:55:19;99396.41;;;10.95;72.47
73633;BME280;61927;50.080;14.418;2022-12-26T16:00:50;99397.25;;;10.96;72.14
73633;BME280;61927;50.080;14.418;2022-12-26T16:03:30;99391.19;;;10.94;71.92
73633;BME280;61927;50.080;14.418;2022-12-26T16:06:20;99386.81;;;10.93;72.06
73633;BME280;61927;50.080;14.418;2022-12-26T16:11:54;99379.72;;;10.93;71.70
73633;BME280;61927;50.080;14.418;2022-12-26T16:14:33;99373.84;;;10.88;72.04
73633;BME280;61927;50.080;14.418;2022-12-26T16:19:42;99374.69;;;10.89;72.14
73633;BME280;61927;50.080;14.418;2022-12-26T16:22:28;99377.91;;;10.94;72.03
73633;BME280;61927;50.080;14.418;2022-12-26T16:25:19;99384.94;;;10.95;71.43
73633;BME280;61927;50.080;14.418;2022-12-26T16:27:47;99392.78;;;10.96;71.66
73633;BME280;61927;50.080;14.418;2022-12-26T16:30:18;99386.81;;;10.93;71.52
73633;BME280;61927;50.080;14.418;2022-12-26T16:32:44;99384.38;;;10.90;71.71
73633;BME280;61927;50.080;14.418;2022-12-26T16:35:23;99389.69;;;10.90;71.39
73633;BME280;61927;50.080;14.418;2022-12-26T16:37:50;99385.50;;;10.86;71.69